Time;durP1;ratioP1;P1;durP2;ratioP2;P2;SDS_P1;SDS_P2;PMS_P1;PMS_P2;Temp;Humidity;BMP_temperature;BMP_pressure;BME280_temperature;BME280_humidity;BME280_pressure;Samples;Min_cycle;Max_cycle;Signal;HPM_P1;HPM_P2
2021/08/18 00:01:45;;;;;;;9.65;5.35;;;;;;;15.14;64.03;99889.05;1742140;82;21453;-86
2021/08/18 00:04:12;;;;;;;10.40;6.35;;;;;;;15.15;64.33;99889.39;1739454;82;21837;-86
2021/08/18 00:06:38;;;;;;;9.55;6.15;;;;;;;15.16;64.31;99888.39;1735918;82;20991;-84
2021/08/18 00:09:05;;;;;;;7.97;5.53;;;;;;;15.16;64.39;99883.91;1739984;82;21002;-86
2021/08/18 00:11:31;;;;;;;9.13;5.55;;;;;;;15.17;64.33;99887.42;1738896;81;21114;-85
2021/08/18 00:13:58;;;;;;;9.60;6.50;;;;;;;15.18;64.38;99886.43;1743355;82;20954;-87
2021/08/18 00:16:26;;;;;;;11.33;6.70;;;;;;;15.18;64.44;99893.07;1742166;82;21025;-86
2021/08/18 00:18:53;;;;;;;9.10;5.72;;;;;;;15.20;64.43;99892.41;1741196;82;20974;-87
2021/08/18 00:21:24;;;;;;;11.00;6.85;;;;;;;15.19;64.53;99891.58;1740006;81;21005;-85
2021/08/18 00:23:51;;;;;;;9.43;5.97;;;;;;;15.19;64.53;99892.08;1730856;82;20990;-87
2021/08/18 00:26:17;;;;;;;8.90;6.33;;;;;;;15.20;64.45;99897.25;1738276;81;20979;-86
2021/08/18 00:28:44;;;;;;;11.38;6.55;;;;;;;15.22;64.56;99897.92;1741329;82;20967;-85
2021/08/18 00:31:13;;;;;;;8.50;5.95;;;;;;;15.23;64.73;99899.61;1738656;82;20974;-87
2021/08/18 00:33:40;;;;;;;7.62;6.55;;;;;;;15.22;64.54;99898.42;1740819;82;21086;-86
2021/08/18 00:36:06;;;;;;;8.20;5.95;;;;;;;15.23;64.59;99900.08;1734907;82;20965;-86
2021/08/18 00:38:32;;;;;;;8.58;5.78;;;;;;;15.23;64.67;99899.61;1742622;81;20974;-87
2021/08/18 00:40:58;;;;;;;12.33;5.97;;;;;;;15.23;64.57;99904.93;1738204;81;21500;-86
2021/08/18 00:43:24;;;;;;;9.65;6.28;;;;;;;15.22;64.47;99903.23;1740899;82;21002;-86
2021/08/18 00:45:51;;;;;;;8.65;5.65;;;;;;;15.24;64.46;99900.45;1743374;82;21033;-86
2021/08/18 00:48:17;;;;;;;8.23;5.58;;;;;;;15.24;64.49;99911.08;1738523;82;20994;-86
2021/08/18 00:50:43;;;;;;;8.20;5.50;;;;;;;15.22;64.65;99903.23;1742838;82;20970;-86
2021/08/18 00:53:09;;;;;;;9.65;5.60;;;;;;;15.21;64.72;99909.55;1743059;82;21006;-86
2021/08/18 00:55:35;;;;;;;9.03;6.00;;;;;;;15.19;64.81;99910.18;1743330;82;21027;-87
2021/08/18 00:58:03;;;;;;;11.08;5.60;;;;;;;15.19;64.83;99908.02;1742662;82;21500;-86
2021/08/18 01:00:29;;;;;;;7.70;5.33;;;;;;;15.17;64.94;99912.17;1738198;81;21025;-86
2021/08/18 01:02:57;;;;;;;7.67;5.22;;;;;;;15.17;65.01;99909.52;1738997;82;21301;-86
2021/08/18 01:05:27;;;;;;;9.53;6.25;;;;;;;15.16;65.11;99913.14;1742415;82;21060;-87
2021/08/18 01:07:55;;;;;;;9.38;5.87;;;;;;;15.15;65.18;99906.66;1744492;82;21520;-86
2021/08/18 01:10:29;;;;;;;10.03;5.17;;;;;;;15.14;65.28;99908.48;1739847;82;20994;-86
2021/08/18 01:12:56;;;;;;;12.07;5.12;;;;;;;15.13;65.30;99904.63;1739466;82;21457;-87
2021/08/18 01:15:26;;;;;;;8.25;5.10;;;;;;;15.11;65.55;99902.64;1736561;81;20981;-86
2021/08/18 01:17:55;;;;;;;7.75;4.80;;;;;;;15.10;65.51;99902.28;1738444;82;21073;-86
2021/08/18 01:20:29;;;;;;;8.58;5.08;;;;;;;15.08;65.65;99902.94;1738241;82;21093;-85
2021/08/18 01:22:58;;;;;;;10.82;6.05;;;;;;;15.05;65.72;99897.92;1739510;82;21496;-87
2021/08/18 01:25:24;;;;;;;11.33;6.10;;;;;;;15.03;65.85;99905.20;1738523;81;20951;-87
2021/08/18 01:27:55;;;;;;;9.35;5.67;;;;;;;15.01;66.08;99901.37;1740144;81;20978;-86
2021/08/18 01:30:23;;;;;;;10.65;6.10;;;;;;;14.98;66.03;99896.36;1740462;82;20989;-86
2021/08/18 01:32:57;;;;;;;11.90;6.70;;;;;;;14.97;66.06;99896.00;1741968;81;21057;-88
2021/08/18 01:35:28;;;;;;;10.60;6.75;;;;;;;14.97;65.95;99894.67;1728070;82;20970;-88
2021/08/18 01:37:54;;;;;;;10.78;7.28;;;;;;;14.97;66.24;99892.88;1738871;82;21029;-88
2021/08/18 01:40:22;;;;;;;12.58;7.22;;;;;;;14.97;65.98;99892.88;1738664;82;21008;-87
2021/08/18 01:42:49;;;;;;;10.93;6.20;;;;;;;14.98;65.94;99891.88;1740384;82;21802;-87
2021/08/18 01:45:37;;;;;;;8.40;5.95;;;;;;;15.00;65.74;99892.58;1739461;82;21046;-86
2021/08/18 01:48:20;;;;;;;9.73;6.30;;;;;;;15.03;65.76;99902.05;1733718;82;20997;-86
2021/08/18 01:50:49;;;;;;;12.70;7.03;;;;;;;15.06;65.85;99903.08;1737315;82;20982;-88
2021/08/18 01:53:18;;;;;;;10.28;7.22;;;;;;;15.07;65.77;99902.58;1739418;82;20950;-88
2021/08/18 01:55:44;;;;;;;13.48;6.83;;;;;;;15.08;65.82;99908.25;1741750;82;21064;-86
2021/08/18 01:58:11;;;;;;;11.63;7.50;;;;;;;15.07;65.86;99906.09;1745682;82;20978;-88
2021/08/18 02:00:38;;;;;;;10.88;6.00;;;;;;;15.08;65.66;99909.08;1745987;82;21045;-86
2021/08/18 02:03:04;;;;;;;8.90;5.87;;;;;;;15.09;65.87;99908.59;1745856;82;21511;-86
2021/08/18 02:05:30;;;;;;;9.58;6.00;;;;;;;15.08;65.66;99898.95;1746078;82;21492;-88
2021/08/18 02:07:56;;;;;;;10.60;7.17;;;;;;;15.08;66.04;99901.11;1745677;82;21073;-85
2021/08/18 02:10:23;;;;;;;9.48;6.47;;;;;;;15.06;65.83;99897.76;1745791;82;21009;-86
2021/08/18 02:12:51;;;;;;;9.00;5.85;;;;;;;15.06;65.68;99900.91;1745630;82;21065;-87
2021/08/18 02:15:22;;;;;;;10.08;6.65;;;;;;;15.06;65.72;99898.26;1746015;82;21021;-86
2021/08/18 02:17:48;;;;;;;9.70;5.65;;;;;;;15.06;65.93;99895.59;1745714;82;21002;-87
2021/08/18 02:20:20;;;;;;;9.10;5.70;;;;;;;15.02;65.53;99896.39;1745866;82;21013;-84
2021/08/18 02:22:46;;;;;;;12.20;6.00;;;;;;;15.00;65.30;99893.91;1744469;82;21018;-85
2021/08/18 02:25:12;;;;;;;8.68;5.35;;;;;;;15.00;65.46;99900.55;1745890;82;21020;-88
2021/08/18 02:27:39;;;;;;;9.03;5.75;;;;;;;15.03;65.50;99905.20;1722496;82;20985;-89
2021/08/18 02:30:07;;;;;;;8.03;5.40;;;;;;;14.99;65.38;99898.02;1745806;82;21075;-89
2021/08/18 02:32:33;;;;;;;9.75;6.12;;;;;;;14.99;65.52;99901.51;1745685;82;21025;-85
2021/08/18 02:34:59;;;;;;;10.58;6.22;;;;;;;14.98;65.46;99900.34;1745887;82;21516;-85
2021/08/18 02:37:25;;;;;;;7.35;5.17;;;;;;;14.96;65.45;99899.65;1745868;82;20998;-88
2021/08/18 02:39:51;;;;;;;8.83;5.95;;;;;;;14.95;65.39;99904.63;1746018;82;20993;-89
2021/08/18 02:42:17;;;;;;;9.70;5.95;;;;;;;14.95;65.65;99908.12;1745819;82;21018;-88
2021/08/18 02:44:43;;;;;;;12.07;6.58;;;;;;;14.93;65.72;99904.77;1746142;82;20954;-90
2021/08/18 02:47:09;;;;;;;9.70;5.15;;;;;;;14.92;65.76;99907.08;1745819;82;21536;-88
2021/08/18 02:49:35;;;;;;;7.90;5.47;;;;;;;14.89;65.75;99911.37;1745975;82;21352;-85
2021/08/18 02:52:01;;;;;;;8.38;5.42;;;;;;;14.86;65.66;99909.00;1774585;81;21028;-88
2021/08/18 02:54:27;;;;;;;9.35;5.83;;;;;;;14.86;65.65;99914.31;1775368;80;21058;-85
2021/08/18 02:56:53;;;;;;;9.48;5.60;;;;;;;14.83;65.54;99912.45;1775332;80;21025;-89
2021/08/18 02:59:20;;;;;;;6.70;5.05;;;;;;;14.80;65.79;99914.08;1775483;80;20989;-88
2021/08/18 03:01:47;;;;;;;9.83;6.10;;;;;;;14.77;65.78;99913.88;1775246;81;21061;-88
2021/08/18 03:04:14;;;;;;;8.33;4.87;;;;;;;14.75;65.70;99911.88;1775476;80;21009;-85
2021/08/18 03:06:41;;;;;;;7.87;5.25;;;;;;;14.72;65.76;99914.83;1775299;81;21527;-87
2021/08/18 03:09:07;;;;;;;8.80;5.45;;;;;;;14.69;65.85;99909.81;1753834;81;21080;-86
2021/08/18 03:11:33;;;;;;;7.95;5.75;;;;;;;14.66;65.66;99913.59;1775371;81;21499;-86
2021/08/18 03:13:59;;;;;;;11.05;5.50;;;;;;;14.65;65.79;99917.73;1775276;81;20997;-88
2021/08/18 03:16:25;;;;;;;10.03;5.65;;;;;;;14.63;65.93;99907.74;1775500;80;21566;-88
2021/08/18 03:18:52;;;;;;;11.45;5.37;;;;;;;14.62;65.97;99912.22;1775557;81;20997;-88
2021/08/18 03:21:18;;;;;;;9.33;5.67;;;;;;;14.61;66.02;99911.89;1775452;81;21017;-86
2021/08/18 03:23:44;;;;;;;11.00;5.28;;;;;;;14.61;65.91;99909.70;1775360;81;21496;-88
2021/08/18 03:26:10;;;;;;;9.95;5.25;;;;;;;14.61;66.12;99915.01;1775249;81;21053;-88
2021/08/18 03:28:36;;;;;;;7.53;4.80;;;;;;;14.57;66.07;99914.47;1775207;81;21030;-87
2021/08/18 03:31:02;;;;;;;8.68;5.42;;;;;;;14.53;66.28;99908.62;1775509;81;21005;-88
2021/08/18 03:33:29;;;;;;;7.97;5.28;;;;;;;14.50;65.98;99914.22;1775477;81;20966;-86
2021/08/18 03:35:55;;;;;;;7.97;5.40;;;;;;;14.48;66.08;99909.53;1775538;81;21459;-88
2021/08/18 03:38:20;;;;;;;7.55;5.22;;;;;;;14.44;66.18;99905.97;1775546;81;21033;-88
2021/08/18 03:40:46;;;;;;;7.75;5.60;;;;;;;14.42;66.16;99909.28;1775698;81;20966;-89
2021/08/18 03:43:14;;;;;;;10.40;5.53;;;;;;;14.39;66.52;99905.59;1775632;81;20989;-87
2021/08/18 03:45:40;;;;;;;8.88;5.45;;;;;;;14.34;66.44;99909.99;1775569;81;20998;-88
2021/08/18 03:48:06;;;;;;;8.80;5.20;;;;;;;14.31;66.43;99907.63;1775550;80;21013;-88
2021/08/18 03:50:32;;;;;;;9.53;5.55;;;;;;;14.28;66.69;99913.22;1775689;81;21067;-88
2021/08/18 03:52:58;;;;;;;11.10;5.92;;;;;;;14.26;66.65;99915.20;1775432;81;21009;-87
2021/08/18 03:55:24;;;;;;;8.60;5.30;;;;;;;14.22;66.83;99917.81;1775646;81;21496;-88
2021/08/18 03:57:50;;;;;;;9.25;5.67;;;;;;;14.18;67.03;99920.38;1775452;80;21017;-88
2021/08/18 04:00:16;;;;;;;11.48;6.12;;;;;;;14.14;67.08;99916.35;1775699;80;20993;-88
2021/08/18 04:02:43;;;;;;;9.63;6.50;;;;;;;14.13;67.17;99919.99;1775478;80;21036;-88
2021/08/18 04:05:10;;;;;;;10.05;6.12;;;;;;;14.07;67.19;99921.39;1775483;81;21065;-88
2021/08/18 04:07:36;;;;;;;12.13;6.45;;;;;;;14.04;67.79;99919.86;1775374;80;20990;-88
2021/08/18 04:10:05;;;;;;;10.05;5.90;;;;;;;13.99;67.74;99920.80;1775722;80;21004;-88
2021/08/18 04:12:31;;;;;;;9.78;6.85;;;;;;;13.95;68.07;99927.84;1775406;81;21017;-88
2021/08/18 04:14:57;;;;;;;10.23;6.25;;;;;;;13.90;68.15;99922.14;1775483;80;21539;-88
2021/08/18 04:17:23;;;;;;;8.70;5.53;;;;;;;13.86;68.15;99922.92;1775444;80;21017;-89
2021/08/18 04:19:49;;;;;;;12.50;6.80;;;;;;;13.84;68.74;99921.72;1775655;81;21480;-90
2021/08/18 04:22:15;;;;;;;10.85;5.95;;;;;;;13.83;68.71;99930.66;1775426;81;21037;-88
2021/08/18 04:24:41;;;;;;;9.90;6.53;;;;;;;13.82;68.37;99929.49;1775506;81;21472;-87
2021/08/18 04:27:07;;;;;;;12.18;6.55;;;;;;;13.79;68.39;99933.75;1775299;81;21456;-87
2021/08/18 04:29:33;;;;;;;9.25;6.67;;;;;;;13.79;68.65;99923.14;1775526;81;21021;-88
2021/08/18 04:32:00;;;;;;;11.38;7.50;;;;;;;13.76;68.60;99927.41;1775326;80;21009;-89
2021/08/18 04:34:26;;;;;;;10.72;6.15;;;;;;;13.74;68.74;99928.02;1775519;81;21052;-90
2021/08/18 04:36:52;;;;;;;11.68;6.65;;;;;;;13.70;69.08;99927.97;1774940;81;21572;-89
2021/08/18 04:39:18;;;;;;;9.33;6.35;;;;;;;13.66;69.21;99933.20;1775544;81;20966;-89
2021/08/18 04:41:44;;;;;;;9.00;6.28;;;;;;;13.49;69.52;99926.77;1775745;81;21088;-88
2021/08/18 04:44:10;;;;;;;8.98;6.08;;;;;;;13.49;69.52;99926.77;1775733;80;20989;-88
2021/08/18 04:46:35;;;;;;;10.30;5.70;;;;;;;13.61;69.50;99948.19;1775581;81;21450;-88
2021/08/18 04:49:01;;;;;;;10.50;6.40;;;;;;;13.62;69.55;99956.48;1775540;80;21050;-89
2021/08/18 04:51:27;;;;;;;10.18;5.50;;;;;;;13.64;69.69;99957.69;1775471;80;20986;-87
2021/08/18 04:53:53;;;;;;;9.88;5.97;;;;;;;13.64;69.60;99958.52;1775460;81;21030;-88
2021/08/18 04:56:19;;;;;;;8.78;4.87;;;;;;;13.67;69.49;99962.70;1775532;80;21044;-88
2021/08/18 04:58:45;;;;;;;9.00;6.05;;;;;;;13.67;69.38;99961.38;1775262;80;20970;-87
2021/08/18 05:01:11;;;;;;;10.13;5.90;;;;;;;13.70;69.46;99966.41;1775448;81;21546;-87
2021/08/18 05:03:37;;;;;;;11.10;5.85;;;;;;;13.71;69.36;99966.25;1775704;81;20997;-87
2021/08/18 05:06:03;;;;;;;9.63;6.20;;;;;;;13.72;69.14;99967.95;1775468;81;21484;-91
2021/08/18 05:08:29;;;;;;;8.55;5.67;;;;;;;13.75;69.30;99974.27;1775248;81;21032;-88
2021/08/18 05:10:54;;;;;;;12.45;6.67;;;;;;;13.78;69.48;99971.83;1775558;80;21031;-85
2021/08/18 05:13:20;;;;;;;9.40;5.83;;;;;;;13.79;69.55;99972.20;1775512;81;20982;-90
2021/08/18 05:15:46;;;;;;;10.08;5.45;;;;;;;13.81;69.36;99972.88;1775566;80;21471;-86
2021/08/18 05:18:12;;;;;;;9.78;5.55;;;;;;;13.82;69.29;99976.73;1775337;81;20974;-88
2021/08/18 05:20:38;;;;;;;9.95;5.58;;;;;;;13.83;69.28;99982.87;1775526;81;21567;-88
2021/08/18 05:23:05;;;;;;;6.80;4.90;;;;;;;13.84;69.32;99976.08;1775226;81;20982;-86
2021/08/18 05:25:31;;;;;;;8.80;5.53;;;;;;;13.86;69.21;99979.94;1775547;81;20982;-89
2021/08/18 05:28:03;;;;;;;12.58;6.55;;;;;;;13.90;69.36;99987.95;1775212;81;21013;-86
2021/08/18 05:30:25;;;;;;;10.80;5.45;;;;;;;13.93;69.01;99986.84;1774356;80;21026;-87
2021/08/18 05:32:51;;;;;;;10.72;5.65;;;;;;;13.94;69.05;99978.73;1775290;80;21480;-88
2021/08/18 05:35:17;;;;;;;10.75;6.65;;;;;;;13.97;69.09;99988.23;1775340;81;21077;-87
2021/08/18 05:37:45;;;;;;;8.00;4.90;;;;;;;13.98;69.00;99975.30;1775371;81;21069;-85
2021/08/18 05:40:11;;;;;;;8.18;5.25;;;;;;;14.01;68.95;99983.81;1775555;80;21080;-88
2021/08/18 05:42:37;;;;;;;8.30;5.33;;;;;;;14.04;69.03;99983.53;1775244;80;21025;-86
2021/08/18 05:45:05;;;;;;;8.93;5.00;;;;;;;14.06;69.27;99988.22;1775481;80;21013;-89
2021/08/18 05:47:32;;;;;;;7.65;5.33;;;;;;;14.08;69.04;99992.91;1723111;81;21958;-87
2021/08/18 05:49:58;;;;;;;10.72;5.08;;;;;;;14.11;69.07;99986.45;1775584;81;21024;-89
2021/08/18 05:52:24;;;;;;;8.80;4.95;;;;;;;14.15;69.19;99984.34;1775249;80;21556;-88
2021/08/18 05:54:50;;;;;;;11.75;5.25;;;;;;;14.18;68.92;99982.73;1775294;81;21065;-90
2021/08/18 05:57:16;;;;;;;7.58;4.85;;;;;;;14.20;68.86;99984.77;1753674;81;21034;-84
2021/08/18 05:59:42;;;;;;;7.30;4.35;;;;;;;14.22;68.99;99985.48;1775391;80;21005;-91
2021/08/18 06:02:08;;;;;;;6.47;4.58;;;;;;;14.24;69.13;99990.97;1775110;81;21551;-88
2021/08/18 06:04:34;;;;;;;7.17;4.40;;;;;;;14.25;68.79;99989.17;1775040;80;21480;-87
2021/08/18 06:07:00;;;;;;;11.00;5.15;;;;;;;14.29;68.74;99986.57;1775101;81;21061;-87
2021/08/18 06:09:26;;;;;;;7.15;4.28;;;;;;;14.32;69.05;99979.66;1775414;81;21332;-89
2021/08/18 06:11:52;;;;;;;6.87;4.92;;;;;;;14.33;68.87;99984.47;1775174;81;21499;-86
2021/08/18 06:14:18;;;;;;;8.38;4.83;;;;;;;14.33;68.62;99972.03;1775468;80;21033;-90
2021/08/18 06:16:44;;;;;;;7.60;4.62;;;;;;;14.35;68.86;99975.39;1775337;81;21000;-92
2021/08/18 06:19:10;;;;;;;6.80;4.37;;;;;;;14.37;68.68;99975.23;1775560;80;21017;-87
2021/08/18 06:21:36;;;;;;;7.75;4.65;;;;;;;14.40;68.48;99975.77;1775325;80;21025;-84
2021/08/18 06:24:14;;;;;;;6.22;4.37;;;;;;;14.43;68.85;99984.78;1775285;80;21037;-90
2021/08/18 06:26:30;;;;;;;7.03;3.95;;;;;;;14.46;68.93;99980.51;1773631;80;21017;-88
2021/08/18 06:28:56;;;;;;;6.50;4.53;;;;;;;14.49;68.46;99980.22;1775279;81;20985;-85
2021/08/18 06:31:21;;;;;;;8.70;5.05;;;;;;;14.51;68.15;99972.13;1775401;81;20970;-85
2021/08/18 06:33:48;;;;;;;6.70;4.62;;;;;;;14.54;68.43;99972.70;1775325;80;20946;-84
2021/08/18 06:36:14;;;;;;;9.65;5.83;;;;;;;14.58;68.45;99962.63;1775071;81;21504;-89
2021/08/18 06:38:40;;;;;;;8.80;5.20;;;;;;;14.62;68.36;99963.17;1775413;80;20970;-90
2021/08/18 06:41:06;;;;;;;6.70;4.50;;;;;;;14.66;68.48;99953.92;1775376;81;20981;-89
2021/08/18 06:43:32;;;;;;;5.72;4.00;;;;;;;14.71;68.27;99955.16;1775298;80;21548;-89
2021/08/18 06:45:58;;;;;;;10.23;4.65;;;;;;;14.76;68.47;99961.34;1775402;81;20985;-91
2021/08/18 06:48:24;;;;;;;7.92;4.20;;;;;;;14.80;67.94;99960.56;1775213;81;21432;-89
2021/08/18 06:50:49;;;;;;;8.00;4.92;;;;;;;14.81;67.99;99963.08;1775646;81;21021;-84
2021/08/18 06:53:15;;;;;;;7.12;3.85;;;;;;;14.84;67.84;99954.82;1775200;81;20950;-86
2021/08/18 06:55:41;;;;;;;10.03;4.47;;;;;;;14.88;67.86;99959.34;1775311;81;21057;-90
2021/08/18 06:58:07;;;;;;;6.90;4.35;;;;;;;14.92;68.30;99964.20;1775455;80;21496;-89
2021/08/18 07:00:33;;;;;;;9.50;4.50;;;;;;;14.97;68.24;99967.27;1775505;81;21010;-88
2021/08/18 07:02:59;;;;;;;9.70;4.60;;;;;;;15.03;68.15;99969.80;1775226;80;21587;-88
2021/08/18 07:05:31;;;;;;;9.10;4.40;;;;;;;15.07;67.92;99969.87;1775268;81;21009;-87
2021/08/18 07:07:53;;;;;;;6.33;4.83;;;;;;;15.11;67.86;99971.23;1774241;80;21073;-89
2021/08/18 07:10:19;;;;;;;7.92;4.15;;;;;;;15.16;67.72;99972.10;1776000;81;21393;-84
2021/08/18 07:12:45;;;;;;;7.97;4.60;;;;;;;15.19;67.51;99967.82;1775560;81;20986;-86
2021/08/18 07:15:11;;;;;;;8.03;4.53;;;;;;;15.23;67.86;99974.50;1775775;81;20962;-89
2021/08/18 07:17:37;;;;;;;7.40;4.55;;;;;;;15.29;68.08;99966.43;1775520;81;21056;-88
2021/08/18 07:20:04;;;;;;;7.80;5.20;;;;;;;15.35;68.16;99973.80;1775649;80;21021;-88
2021/08/18 07:22:30;;;;;;;7.65;4.92;;;;;;;15.43;67.66;99977.39;1775477;80;21014;-90
2021/08/18 07:24:56;;;;;;;9.53;3.80;;;;;;;15.51;67.18;99972.64;1775546;81;21061;-85
2021/08/18 07:27:22;;;;;;;7.70;4.12;;;;;;;15.56;67.18;99981.48;1775403;80;21079;-86
2021/08/18 07:29:57;;;;;;;7.37;4.42;;;;;;;15.59;66.82;99982.01;1775436;81;21496;-90
2021/08/18 07:32:24;;;;;;;10.63;3.98;;;;;;;15.63;66.89;99976.75;1775334;81;21013;-90
2021/08/18 07:34:50;;;;;;;6.42;3.50;;;;;;;15.66;66.73;99972.92;1775572;80;20977;-91
2021/08/18 07:37:17;;;;;;;8.30;4.55;;;;;;;15.71;66.60;99975.52;1775381;80;20958;-91
2021/08/18 07:39:44;;;;;;;5.92;3.67;;;;;;;15.77;66.59;99982.05;1775149;81;21029;-88
2021/08/18 07:42:11;;;;;;;6.05;3.95;;;;;;;15.85;66.34;99982.11;1775309;80;21026;-85
2021/08/18 07:44:38;;;;;;;6.72;3.55;;;;;;;15.92;65.82;99983.16;1775491;81;21057;-87
2021/08/18 07:47:04;;;;;;;4.80;3.47;;;;;;;15.98;65.31;99976.39;1774832;80;21009;-86
2021/08/18 07:49:30;;;;;;;6.67;3.87;;;;;;;16.02;65.42;99975.09;1775195;81;21987;-87
2021/08/18 07:51:56;;;;;;;5.22;3.22;;;;;;;16.10;65.60;99982.31;1774538;80;21057;-85
2021/08/18 07:54:22;;;;;;;5.58;3.52;;;;;;;16.19;65.09;99973.41;1775424;81;21008;-88
2021/08/18 07:56:48;;;;;;;5.17;3.08;;;;;;;16.27;65.48;99979.27;1775275;81;21491;-90
2021/08/18 07:59:14;;;;;;;7.50;3.98;;;;;;;16.36;65.56;99990.31;1775380;80;21017;-90
2021/08/18 08:01:41;;;;;;;6.67;4.12;;;;;;;16.41;65.17;99987.50;1775362;81;20962;-91
2021/08/18 08:04:07;;;;;;;4.50;2.72;;;;;;;16.47;64.81;99988.70;1775122;81;21069;-89
2021/08/18 08:06:33;;;;;;;5.83;3.70;;;;;;;16.55;65.21;99987.91;1775078;81;21006;-86
2021/08/18 08:08:59;;;;;;;7.65;3.40;;;;;;;16.64;64.37;99991.79;1775447;81;21005;-88
2021/08/18 08:11:25;;;;;;;4.25;3.20;;;;;;;16.64;64.33;99991.79;1775401;81;21005;-90
2021/08/18 08:13:51;;;;;;;3.75;3.10;;;;;;;16.63;64.63;99999.95;1775477;80;21021;-87
2021/08/18 08:16:17;;;;;;;5.40;3.87;;;;;;;16.63;64.58;99994.13;1775437;81;21654;-88
2021/08/18 08:18:43;;;;;;;8.18;3.35;;;;;;;16.64;64.12;99991.79;1775189;80;21005;-84
2021/08/18 08:21:09;;;;;;;5.97;3.60;;;;;;;16.66;64.32;100004.97;1775337;81;21508;-86
2021/08/18 08:23:35;;;;;;;8.05;3.35;;;;;;;16.67;63.99;100002.63;1775414;81;21045;-86
2021/08/18 08:26:01;;;;;;;5.05;3.15;;;;;;;16.69;64.30;100001.16;1775454;81;21451;-86
2021/08/18 08:28:27;;;;;;;4.90;3.02;;;;;;;16.69;63.96;100001.16;1775256;80;21030;-90
2021/08/18 08:30:53;;;;;;;4.25;3.00;;;;;;;16.66;63.77;99999.64;1775331;80;21004;-90
2021/08/18 08:33:19;;;;;;;4.12;3.72;;;;;;;16.62;63.87;100004.95;1775338;81;20998;-87
2021/08/18 08:35:45;;;;;;;3.45;2.55;;;;;;;16.60;63.85;99995.77;1775465;80;20954;-90
2021/08/18 08:38:13;;;;;;;6.15;2.40;;;;;;;16.60;63.58;100001.09;1775357;81;21465;-88
2021/08/18 08:40:43;;;;;;;4.92;3.00;;;;;;;16.62;63.25;99998.30;1775200;80;21131;-89
2021/08/18 08:43:08;;;;;;;5.62;2.87;;;;;;;16.68;63.63;99991.47;1774765;80;21088;-92
2021/08/18 08:45:34;;;;;;;4.05;2.52;;;;;;;16.78;63.56;99994.41;1775531;81;21013;-85
2021/08/18 08:48:00;;;;;;;4.90;2.45;;;;;;;16.87;63.95;99988.09;1775494;80;21005;-91
2021/08/18 08:50:27;;;;;;;5.45;2.35;;;;;;;16.94;63.73;99991.46;1775457;80;20977;-88
2021/08/18 08:52:53;;;;;;;3.85;2.35;;;;;;;16.99;63.19;99990.50;1774998;81;21025;-87
2021/08/18 08:55:19;;;;;;;5.65;2.80;;;;;;;16.97;62.65;99985.81;1775395;81;20962;-89
2021/08/18 08:57:49;;;;;;;7.12;2.85;;;;;;;17.06;62.98;99979.52;1775370;80;20986;-85
2021/08/18 09:00:16;;;;;;;5.08;2.20;;;;;;;17.21;63.27;99978.38;1774504;80;21504;-91
2021/08/18 09:02:42;;;;;;;5.47;2.37;;;;;;;17.26;62.13;99990.23;1766195;81;21049;-88
2021/08/18 09:05:09;;;;;;;3.02;1.82;;;;;;;17.24;62.09;99986.06;1745753;82;21042;-87
2021/08/18 09:07:35;;;;;;;4.47;2.27;;;;;;;17.23;62.16;99993.23;1745529;82;21013;-87
2021/08/18 09:10:05;;;;;;;4.47;2.58;;;;;;;17.27;61.74;99983.90;1746065;82;20989;-90
2021/08/18 09:12:38;;;;;;;3.12;2.15;;;;;;;17.28;62.03;99988.25;1745728;82;21010;-88
2021/08/18 09:15:25;;;;;;;4.25;1.98;;;;;;;17.32;61.89;99986.09;1745862;82;21017;-85
2021/08/18 09:17:53;;;;;;;3.98;2.15;;;;;;;17.38;61.54;99986.78;1745529;82;21021;-85
2021/08/18 09:20:22;;;;;;;2.70;2.02;;;;;;;17.47;62.05;99972.47;1745735;82;21080;-86
2021/08/18 09:22:56;;;;;;;3.25;1.85;;;;;;;17.70;60.68;99957.13;1745592;82;21002;-87
2021/08/18 09:25:26;;;;;;;3.30;2.35;;;;;;;17.70;60.68;99957.13;1744429;82;21010;-89
2021/08/18 09:28:04;;;;;;;3.02;1.67;;;;;;;17.79;61.21;99942.82;1745671;82;21050;-86
2021/08/18 09:30:40;;;;;;;3.58;2.15;;;;;;;18.05;61.00;99964.82;1775406;80;21100;-86
2021/08/18 09:33:19;;;;;;;2.87;1.65;;;;;;;18.13;60.56;99959.99;1774754;80;21495;-85
2021/08/18 09:35:55;;;;;;;3.55;1.85;;;;;;;18.39;59.85;99962.92;1775452;80;21005;-89
2021/08/18 09:38:21;;;;;;;4.70;1.90;;;;;;;18.39;59.85;99962.92;1773523;81;21041;-87
2021/08/18 09:40:50;;;;;;;3.20;1.85;;;;;;;18.40;58.90;99960.61;1775511;81;21013;-87
2021/08/18 09:43:25;;;;;;;3.90;1.45;;;;;;;18.41;58.97;99974.28;1775310;80;21029;-90
2021/08/18 09:46:03;;;;;;;3.37;1.45;;;;;;;18.38;58.85;99964.77;1775293;81;21017;-84
2021/08/18 09:48:32;;;;;;;1.80;0.90;;;;;;;18.31;57.85;99963.79;1765957;81;20998;-90
2021/08/18 09:51:03;;;;;;;1.77;1.20;;;;;;;18.06;58.50;99944.30;1745079;82;21040;-89
2021/08/18 09:53:34;;;;;;;3.45;1.40;;;;;;;18.09;57.41;99958.64;1745575;82;21041;-87
2021/08/18 09:56:13;;;;;;;10.20;1.60;;;;;;;18.05;57.99;99959.98;1746222;82;20986;-84
2021/08/18 09:58:51;;;;;;;6.15;1.80;;;;;;;18.04;58.68;99959.66;1745078;81;21070;-84
2021/08/18 10:01:19;;;;;;;2.50;1.40;;;;;;;18.04;57.92;99950.33;1773178;81;20967;-86
2021/08/18 10:03:48;;;;;;;3.92;1.65;;;;;;;18.03;57.70;99959.31;1776163;81;21023;-87
2021/08/18 10:06:15;;;;;;;3.12;1.65;;;;;;;18.03;58.51;99950.83;1739012;81;20983;-87
2021/08/18 10:08:44;;;;;;;2.40;1.10;;;;;;;18.09;57.89;99959.15;1754966;81;20943;-88
2021/08/18 10:11:14;;;;;;;2.55;1.67;;;;;;;18.15;58.32;99951.80;1764920;81;21070;-87
2021/08/18 10:13:40;;;;;;;1.77;1.30;;;;;;;18.23;57.98;99953.97;1748940;82;21479;-88
2021/08/18 10:16:08;;;;;;;1.75;1.30;;;;;;;18.27;57.95;99955.28;1761799;81;20991;-83
2021/08/18 10:18:38;;;;;;;1.65;1.20;;;;;;;18.36;57.76;99950.77;1751761;81;21557;-87
2021/08/18 10:21:27;;;;;;;1.70;1.32;;;;;;;18.47;58.06;99952.23;1743253;82;21017;-86
2021/08/18 10:24:00;;;;;;;4.67;2.87;;;;;;;18.50;57.13;99936.70;1740442;81;21020;-91
2021/08/18 10:26:38;;;;;;;1.42;1.30;;;;;;;18.64;57.99;99943.16;1749876;81;21053;-87
2021/08/18 10:29:16;;;;;;;2.52;1.65;;;;;;;18.81;57.47;99939.94;1736134;81;21478;-86
2021/08/18 10:31:47;;;;;;;4.17;1.70;;;;;;;18.86;57.22;99940.77;1738507;81;21040;-89
2021/08/18 10:34:36;;;;;;;3.35;1.37;;;;;;;18.85;57.28;99937.75;1739948;81;21025;-87
2021/08/18 10:37:25;;;;;;;2.60;1.65;;;;;;;18.83;56.96;99952.64;1773115;80;21010;-87
2021/08/18 10:39:54;;;;;;;1.52;1.42;;;;;;;18.77;56.69;99946.64;1773943;81;21023;-91
2021/08/18 10:42:44;;;;;;;2.83;1.25;;;;;;;18.79;56.76;99943.31;1765996;81;21006;-87
2021/08/18 10:45:36;;;;;;;3.25;1.45;;;;;;;18.83;56.44;99941.12;1736292;82;21036;-88
2021/08/18 10:48:03;;;;;;;1.65;1.25;;;;;;;18.84;56.37;99940.10;1723231;82;21051;-88
2021/08/18 10:50:43;;;;;;;3.33;1.40;;;;;;;18.90;56.65;99939.41;1743355;81;21559;-86
2021/08/18 10:53:30;;;;;;;6.58;1.10;;;;;;;19.05;57.11;99952.38;1726842;82;21043;-88
2021/08/18 10:55:56;;;;;;;2.60;1.05;;;;;;;19.06;55.37;99947.86;1727459;82;21011;-88
2021/08/18 10:58:31;;;;;;;2.75;1.30;;;;;;;18.94;55.51;99944.22;1739319;81;20968;-90
2021/08/18 11:00:57;;;;;;;4.42;1.52;;;;;;;18.87;55.78;99943.77;1742971;82;21541;-89
2021/08/18 11:03:34;;;;;;;0.98;0.88;;;;;;;18.86;56.00;99940.77;1733292;81;21028;-89
2021/08/18 11:05:58;;;;;;;1.50;1.10;;;;;;;18.89;55.93;99945.27;1719796;81;21634;-89
2021/08/18 11:08:40;;;;;;;2.47;1.30;;;;;;;18.91;55.49;99948.58;1762363;81;20987;-88
2021/08/18 11:11:10;;;;;;;1.47;0.90;;;;;;;18.89;55.89;99947.11;1773931;81;20987;-89
2021/08/18 11:13:49;;;;;;;7.22;1.02;;;;;;;18.92;55.98;99946.73;1773455;81;21043;-90
2021/08/18 11:16:31;;;;;;;0.65;0.57;;;;;;;18.98;55.39;99951.38;1774410;81;20987;-89
2021/08/18 11:19:10;;;;;;;1.10;0.80;;;;;;;18.97;55.44;99947.88;1773657;81;21018;-87
2021/08/18 11:21:41;;;;;;;9.00;1.52;;;;;;;18.97;55.58;99943.05;1773556;81;21430;-86
2021/08/18 11:24:12;;;;;;;2.58;0.98;;;;;;;19.01;54.92;99940.34;1775609;81;21090;-87
2021/08/18 11:26:43;;;;;;;2.22;0.80;;;;;;;19.00;55.55;99937.86;1776119;81;21011;-90
2021/08/18 11:29:15;;;;;;;1.37;1.20;;;;;;;19.03;55.52;99938.34;1776464;80;21042;-90
2021/08/18 11:31:50;;;;;;;1.33;0.67;;;;;;;19.09;55.44;99929.62;1775256;81;21026;-92
2021/08/18 11:34:33;;;;;;;0.62;0.60;;;;;;;19.14;55.64;99928.56;1742399;81;21021;-88
2021/08/18 11:37:07;;;;;;;1.85;0.93;;;;;;;19.20;55.44;99930.54;1741142;82;21055;-87